createdAt,value
2022-08-10T00:00:32.073Z,22.23
2022-08-10T00:01:32.134Z,22.30
2022-08-10T00:03:26.272Z,22.25
2022-08-10T00:04:26.258Z,22.23
2022-08-10T00:06:21.543Z,22.30
2022-08-10T00:07:21.538Z,22.34
2022-08-10T00:09:15.635Z,22.36
2022-08-10T00:10:15.621Z,22.31
2022-08-10T00:12:09.390Z,22.37
2022-08-10T00:13:09.383Z,22.33
2022-08-10T00:15:03.517Z,22.30
2022-08-10T00:16:03.499Z,22.31
2022-08-10T00:17:57.717Z,22.33
2022-08-10T00:18:57.703Z,22.30
2022-08-10T00:20:51.875Z,22.15
2022-08-10T00:21:51.861Z,22.12
2022-08-10T00:23:46.998Z,22.11
2022-08-10T00:24:46.987Z,22.04
2022-08-10T00:27:58.981Z,22.00
2022-08-10T00:28:01.786Z,22.07
2022-08-10T00:29:36.233Z,21.96
2022-08-10T00:30:36.217Z,21.91
2022-08-10T00:32:29.987Z,21.90
2022-08-10T00:33:29.969Z,21.88
2022-08-10T00:35:24.245Z,21.90
2022-08-10T00:36:24.239Z,21.84
2022-08-10T00:38:19.434Z,21.82
2022-08-10T00:39:19.477Z,21.80
2022-08-10T00:41:13.527Z,21.77
2022-08-10T00:42:13.520Z,21.71
2022-08-10T00:44:08.624Z,21.73
2022-08-10T00:45:08.616Z,21.71
2022-08-10T00:47:03.724Z,21.71
2022-08-10T00:48:03.711Z,21.56
2022-08-10T00:49:57.815Z,21.73
2022-08-10T00:50:57.803Z,21.66
2022-08-10T00:52:51.955Z,21.55
2022-08-10T00:53:51.942Z,21.53
2022-08-10T00:57:14.984Z,21.63
2022-08-10T00:57:16.651Z,21.60
2022-08-10T00:58:40.163Z,21.56
2022-08-10T00:59:58.590Z,21.53
2022-08-10T01:02:09.177Z,21.43
2022-08-10T01:02:34.793Z,21.41
2022-08-10T01:04:58.768Z,21.30
2022-08-10T01:05:28.504Z,21.28
2022-08-10T01:07:24.095Z,21.28
2022-08-10T01:08:24.078Z,21.28
2022-08-10T01:10:19.190Z,21.30
2022-08-10T01:12:38.352Z,21.29
2022-08-10T01:13:13.328Z,21.25
2022-08-10T01:14:13.302Z,21.23
2022-08-10T01:16:07.385Z,21.26
2022-08-10T01:17:07.379Z,21.25
2022-08-10T01:19:01.488Z,21.11
2022-08-10T01:20:01.894Z,21.20
2022-08-10T01:21:56.968Z,21.23
2022-08-10T01:22:55.555Z,21.22
2022-08-10T01:24:49.664Z,21.14
2022-08-10T01:26:11.532Z,21.08
2022-08-10T01:27:43.863Z,21.18
2022-08-10T01:28:43.845Z,21.07
2022-08-10T01:30:37.573Z,21.14
2022-08-10T01:31:37.561Z,21.11
2022-08-10T01:34:02.465Z,20.97
2022-08-10T01:34:32.711Z,20.95
2022-08-10T01:36:32.401Z,20.93
2022-08-10T01:37:26.803Z,20.80
2022-08-10T01:39:21.023Z,20.88
2022-08-10T01:40:20.942Z,20.86
2022-08-10T01:42:14.755Z,20.89
2022-08-10T01:43:14.739Z,20.93
2022-08-10T01:45:08.475Z,20.85
2022-08-10T01:46:08.468Z,20.93
2022-08-10T01:48:02.589Z,20.88
2022-08-10T01:49:02.573Z,20.85
2022-08-10T01:50:59.870Z,20.75
2022-08-10T01:51:56.699Z,20.68
2022-08-10T01:53:50.792Z,20.73
2022-08-10T01:54:50.780Z,20.61
2022-08-10T01:56:44.904Z,20.55
2022-08-10T01:57:44.895Z,20.55
2022-08-10T01:59:39.107Z,20.52
2022-08-10T02:00:39.103Z,20.55
2022-08-10T02:02:33.643Z,20.46
2022-08-10T02:03:33.365Z,20.55
2022-08-10T02:05:27.181Z,20.52
2022-08-10T02:06:27.174Z,20.56
2022-08-10T02:08:22.577Z,20.50
2022-08-10T02:09:22.559Z,20.55
2022-08-10T02:11:17.790Z,20.49
2022-08-10T02:12:17.783Z,20.53
2022-08-10T02:14:11.916Z,20.48
2022-08-10T02:15:11.895Z,20.49
2022-08-10T02:17:06.023Z,20.42
2022-08-10T02:18:06.017Z,20.41
2022-08-10T02:20:00.294Z,20.37
2022-08-10T02:21:00.278Z,20.36
2022-08-10T02:22:54.391Z,20.34
2022-08-10T02:23:59.694Z,20.30
2022-08-10T02:25:48.485Z,20.14
2022-08-10T02:26:48.481Z,20.04
2022-08-10T02:28:42.941Z,20.07
2022-08-10T02:29:42.926Z,20.11
2022-08-10T02:31:37.235Z,20.05
2022-08-10T02:32:38.079Z,20.04
2022-08-10T02:34:32.337Z,20.08
2022-08-10T02:35:53.899Z,20.05
2022-08-10T02:37:26.443Z,19.99
2022-08-10T02:38:58.654Z,19.97
2022-08-10T02:45:12.566Z,20.05
2022-08-10T02:45:14.851Z,20.04
2022-08-10T02:45:19.604Z,20.02
2022-08-10T02:45:20.367Z,20.11
2022-08-10T02:46:09.490Z,20.02
2022-08-10T02:47:09.481Z,20.04
2022-08-10T02:49:03.588Z,20.07
2022-08-10T02:50:03.580Z,20.11
2022-08-10T02:52:07.854Z,19.99
2022-08-10T02:52:58.638Z,19.99
2022-08-10T02:54:52.778Z,19.93
2022-08-10T02:55:52.763Z,19.94
2022-08-10T02:58:13.850Z,19.96
2022-08-10T02:58:46.840Z,19.96
2022-08-10T03:00:40.955Z,19.86
2022-08-10T03:01:40.997Z,19.96
2022-08-10T03:03:35.046Z,19.82
2022-08-10T03:04:55.647Z,19.74
2022-08-10T03:06:29.099Z,19.79
2022-08-10T03:07:42.926Z,19.59
2022-08-10T03:09:23.374Z,19.56
2022-08-10T03:10:23.358Z,19.56
2022-08-10T03:12:36.638Z,19.64
2022-08-10T03:13:17.435Z,19.72
2022-08-10T03:15:15.531Z,19.72
2022-08-10T03:16:11.547Z,19.72
2022-08-10T03:18:05.718Z,19.68
2022-08-10T03:19:05.700Z,19.57
2022-08-10T03:20:59.912Z,19.64
2022-08-10T03:21:59.904Z,19.71
2022-08-10T03:23:55.215Z,19.64
2022-08-10T03:24:55.199Z,19.63
2022-08-10T03:26:49.350Z,19.57
2022-08-10T03:27:49.340Z,19.57
2022-08-10T03:30:29.750Z,19.54
2022-08-10T03:30:43.425Z,19.57
2022-08-10T03:32:37.529Z,19.60
2022-08-10T03:33:37.520Z,19.52
2022-08-10T03:35:31.679Z,19.52
2022-08-10T03:36:41.691Z,19.44
2022-08-10T03:38:25.850Z,19.37
2022-08-10T03:39:25.892Z,19.39
2022-08-10T03:41:20.028Z,19.34
2022-08-10T03:42:20.022Z,19.42
2022-08-10T03:44:14.182Z,19.49
2022-08-10T03:45:14.165Z,19.50
2022-08-10T03:47:16.050Z,19.31
2022-08-10T03:48:09.262Z,19.31
2022-08-10T03:50:03.447Z,19.27
2022-08-10T03:51:03.332Z,19.22
2022-08-10T03:52:57.499Z,19.31
2022-08-10T03:54:04.941Z,19.27
2022-08-10T03:56:29.318Z,19.30
2022-08-10T03:56:51.573Z,19.27
2022-08-10T03:58:45.689Z,19.27
2022-08-10T03:59:45.670Z,19.23
2022-08-10T04:02:44.344Z,19.01
2022-08-10T04:02:44.804Z,19.17
2022-08-10T04:04:34.955Z,19.13
2022-08-10T04:05:38.473Z,19.16
2022-08-10T04:07:30.033Z,19.05
2022-08-10T04:08:30.025Z,19.05
2022-08-10T04:10:24.111Z,19.07
2022-08-10T04:11:24.094Z,19.01
2022-08-10T04:13:19.166Z,19.15
2022-08-10T04:14:38.335Z,19.05
2022-08-10T04:16:13.385Z,19.16
2022-08-10T04:17:14.133Z,19.24
2022-08-10T04:19:08.448Z,19.17
2022-08-10T04:20:08.435Z,19.27
2022-08-10T04:22:02.531Z,19.23
2022-08-10T04:23:02.516Z,19.30
2022-08-10T04:24:56.641Z,19.34
2022-08-10T04:25:56.622Z,19.30
2022-08-10T04:27:50.792Z,19.27
2022-08-10T04:28:50.781Z,19.30
2022-08-10T04:30:44.560Z,19.23
2022-08-10T04:31:44.548Z,19.19
2022-08-10T04:33:39.624Z,19.24
2022-08-10T04:34:39.617Z,19.22
2022-08-10T04:36:33.757Z,19.16
2022-08-10T04:37:33.739Z,19.08
2022-08-10T04:39:27.969Z,19.07
2022-08-10T04:40:29.068Z,19.07
2022-08-10T04:42:22.971Z,19.04
2022-08-10T04:43:22.941Z,19.01
2022-08-10T04:45:17.033Z,19.15
2022-08-10T04:46:56.061Z,19.07
2022-08-10T04:48:41.975Z,19.07
2022-08-10T04:49:54.054Z,19.05
2022-08-10T04:51:05.424Z,19.15
2022-08-10T04:52:05.408Z,19.12
2022-08-10T04:54:05.945Z,19.13
2022-08-10T04:54:59.544Z,19.20
2022-08-10T04:56:53.662Z,19.17
2022-08-10T04:57:53.644Z,19.09
2022-08-10T04:59:47.783Z,19.08
2022-08-10T05:00:47.788Z,19.09
2022-08-10T05:02:43.887Z,19.13
2022-08-10T05:04:36.231Z,19.08
2022-08-10T05:05:37.944Z,19.09
2022-08-10T05:06:37.926Z,19.16
2022-08-10T05:08:32.058Z,19.22
2022-08-10T05:09:32.050Z,19.17
2022-08-10T05:11:26.156Z,19.16
2022-08-10T05:12:26.180Z,19.19
2022-08-10T05:14:20.576Z,19.15
2022-08-10T05:15:20.567Z,19.15
2022-08-10T05:17:14.875Z,19.12
2022-08-10T05:18:14.858Z,19.20
2022-08-10T05:20:10.092Z,19.22
2022-08-10T05:21:10.049Z,19.32
2022-08-10T05:23:04.146Z,19.20
2022-08-10T05:24:04.135Z,19.31
2022-08-10T05:25:58.225Z,19.23
2022-08-10T05:27:00.333Z,19.31
2022-08-10T05:28:52.313Z,19.32
2022-08-10T05:30:01.604Z,19.30
2022-08-10T05:31:46.534Z,19.41
2022-08-10T05:32:57.841Z,19.32
2022-08-10T05:34:41.696Z,19.38
2022-08-10T05:35:57.869Z,19.39
2022-08-10T05:38:10.820Z,19.45
2022-08-10T05:38:35.779Z,19.49
2022-08-10T05:40:29.897Z,19.44
2022-08-10T05:41:29.874Z,19.52
2022-08-10T05:43:24.212Z,19.41
2022-08-10T05:44:24.205Z,19.45
2022-08-10T05:46:21.039Z,19.54
2022-08-10T05:47:18.325Z,19.57
2022-08-10T05:49:12.604Z,19.49
2022-08-10T05:50:12.596Z,19.57
2022-08-10T05:52:06.399Z,19.56
2022-08-10T05:53:59.134Z,19.53
2022-08-10T05:55:02.884Z,19.56
2022-08-10T05:56:00.226Z,19.50
2022-08-10T05:57:54.326Z,19.59
2022-08-10T05:58:54.307Z,19.54
2022-08-10T06:00:50.116Z,19.57
2022-08-10T06:02:30.297Z,19.60
2022-08-10T06:03:42.221Z,19.63
2022-08-10T06:04:42.219Z,19.50
2022-08-10T06:06:36.524Z,19.60
2022-08-10T06:07:36.643Z,19.56
2022-08-10T06:09:30.820Z,19.54
2022-08-10T06:10:32.103Z,19.54
2022-08-10T06:12:29.306Z,19.31
2022-08-10T06:13:29.653Z,19.27
2022-08-10T06:15:21.622Z,19.34
2022-08-10T06:16:19.425Z,19.34
2022-08-10T06:18:13.582Z,19.32
2022-08-10T06:19:14.557Z,19.30
2022-08-10T06:21:07.695Z,19.31
2022-08-10T06:22:07.681Z,19.35
2022-08-10T06:24:01.815Z,19.39
2022-08-10T06:26:55.890Z,19.45
2022-08-10T06:27:55.870Z,19.56
2022-08-10T06:29:50.041Z,19.78
2022-08-10T06:30:50.035Z,19.79
2022-08-10T06:32:44.143Z,19.94
2022-08-10T06:33:44.127Z,20.00
2022-08-10T06:35:38.406Z,20.00
2022-08-10T06:36:38.388Z,20.04
2022-08-10T06:38:32.495Z,20.19
2022-08-10T06:39:34.429Z,20.42
2022-08-10T06:42:14.584Z,20.70
2022-08-10T06:42:28.158Z,21.01
2022-08-10T06:44:22.253Z,21.93
2022-08-10T06:45:22.247Z,22.30
2022-08-10T06:47:22.982Z,22.73
2022-08-10T06:48:16.332Z,22.98
2022-08-10T06:50:10.451Z,23.23
2022-08-10T06:51:10.439Z,23.41
2022-08-10T06:53:05.157Z,23.44
2022-08-10T06:54:05.144Z,23.67
2022-08-10T06:55:59.540Z,23.76
2022-08-10T06:57:17.465Z,23.86
2022-08-10T06:58:53.642Z,24.18
2022-08-10T06:59:53.636Z,24.31
2022-08-10T07:01:51.063Z,24.33
2022-08-10T07:02:47.403Z,24.37
2022-08-10T07:04:41.224Z,24.74
2022-08-10T07:05:41.220Z,25.03
2022-08-10T07:07:35.598Z,25.37
2022-08-10T07:08:35.583Z,25.38
2022-08-10T07:10:41.123Z,25.77
2022-08-10T07:11:29.764Z,26.08
2022-08-10T07:14:14.771Z,26.36
2022-08-10T07:14:23.951Z,26.34
2022-08-10T07:16:18.123Z,26.60
2022-08-10T07:17:18.114Z,26.86
2022-08-10T07:19:12.369Z,27.23
2022-08-10T07:20:12.371Z,27.12
2022-08-10T07:22:06.520Z,27.31
2022-08-10T07:23:56.905Z,27.58
2022-08-10T07:25:00.799Z,28.07
2022-08-10T07:26:00.791Z,28.00
2022-08-10T07:28:00.129Z,27.83
2022-08-10T07:28:54.958Z,28.03
2022-08-10T07:30:48.785Z,28.44
2022-08-10T07:31:55.947Z,28.72
2022-08-10T07:33:44.487Z,28.75
2022-08-10T07:34:44.487Z,28.52
2022-08-10T07:36:38.868Z,28.37
2022-08-10T07:37:38.856Z,28.42
2022-08-10T07:40:01.937Z,28.52
2022-08-10T07:40:34.161Z,28.66
2022-08-10T07:42:28.021Z,28.57
2022-08-10T07:43:28.015Z,28.66
2022-08-10T07:45:22.304Z,28.50
2022-08-10T07:46:22.285Z,28.53
2022-08-10T07:48:16.427Z,28.59
2022-08-10T07:49:19.350Z,28.84
2022-08-10T07:51:10.594Z,28.87
2022-08-10T07:52:10.582Z,28.68
2022-08-10T07:54:04.886Z,28.68
2022-08-10T07:55:04.887Z,28.66
2022-08-10T07:56:59.157Z,28.69
2022-08-10T07:57:59.134Z,28.56
2022-08-10T07:59:53.360Z,28.61
2022-08-10T08:00:53.357Z,28.57
2022-08-10T08:02:47.626Z,28.61
2022-08-10T08:04:05.958Z,28.47
2022-08-10T08:05:58.862Z,28.31
2022-08-10T08:06:41.436Z,28.32
2022-08-10T08:08:35.544Z,28.09
2022-08-10T08:09:35.541Z,27.90
2022-08-10T08:11:30.681Z,27.97
2022-08-10T08:12:36.222Z,28.15
2022-08-10T08:14:24.778Z,27.91
2022-08-10T08:16:17.370Z,27.79
2022-08-10T08:17:18.997Z,27.95
2022-08-10T08:18:24.444Z,28.06
2022-08-10T08:20:14.130Z,28.09
2022-08-10T08:24:04.647Z,28.00
2022-08-10T08:24:05.068Z,27.95
2022-08-10T08:24:31.990Z,28.07
2022-08-10T08:26:02.555Z,28.28
2022-08-10T08:27:02.566Z,28.35
2022-08-10T08:28:56.679Z,28.50
2022-08-10T08:29:56.680Z,28.46
2022-08-10T08:32:01.194Z,28.61
2022-08-10T08:32:50.982Z,28.61
2022-08-10T08:34:45.279Z,28.81
2022-08-10T08:35:45.284Z,28.89
2022-08-10T08:38:33.027Z,29.07
2022-08-10T08:38:39.503Z,29.27
2022-08-10T08:40:33.649Z,29.10
2022-08-10T08:41:33.629Z,29.22
2022-08-10T08:43:31.368Z,29.44
2022-08-10T08:44:31.626Z,29.58
2022-08-10T08:46:22.027Z,29.59
2022-08-10T08:48:04.325Z,29.81
2022-08-10T08:50:05.197Z,29.56
2022-08-10T08:50:16.162Z,29.62
2022-08-10T08:52:18.385Z,29.73
2022-08-10T08:53:21.503Z,29.84
2022-08-10T08:55:04.594Z,29.96
2022-08-10T08:56:07.193Z,30.13
2022-08-10T08:57:58.783Z,30.37
2022-08-10T08:58:58.779Z,30.46
2022-08-10T09:00:53.158Z,30.71
2022-08-10T09:01:53.186Z,30.78
2022-08-10T09:03:47.360Z,30.71
2022-08-10T09:04:47.337Z,30.83
2022-08-10T09:06:41.521Z,30.62
2022-08-10T09:08:00.910Z,30.60
2022-08-10T09:09:35.664Z,30.58
2022-08-10T09:10:37.649Z,30.51
2022-08-10T09:12:29.901Z,30.60
2022-08-10T09:13:29.895Z,30.53
2022-08-10T09:15:40.448Z,30.74
2022-08-10T09:16:24.072Z,30.75
2022-08-10T09:18:18.210Z,30.90
2022-08-10T09:19:34.991Z,31.17
2022-08-10T09:21:12.378Z,31.07
2022-08-10T09:22:17.969Z,31.08
2022-08-10T09:24:06.635Z,31.46
2022-08-10T09:25:06.638Z,31.54
2022-08-10T09:27:00.790Z,31.71
2022-08-10T09:28:00.784Z,31.89
2022-08-10T09:29:56.181Z,31.94
2022-08-10T09:31:20.819Z,32.08
2022-08-10T09:36:20.692Z,32.11
2022-08-10T09:36:22.961Z,31.97
2022-08-10T09:36:25.146Z,31.99
2022-08-10T09:36:44.616Z,31.95
2022-08-10T09:38:38.486Z,31.99
2022-08-10T09:40:06.720Z,31.90
2022-08-10T09:41:32.757Z,31.84
2022-08-10T09:42:32.681Z,31.94
2022-08-10T09:44:26.811Z,31.91
2022-08-10T09:45:26.817Z,31.94
2022-08-10T09:47:21.989Z,31.64
2022-08-10T09:48:21.978Z,31.68
2022-08-10T09:50:16.172Z,31.99
2022-08-10T09:51:42.132Z,32.23
2022-08-10T09:53:10.312Z,32.57
2022-08-10T09:54:10.307Z,32.69
2022-08-10T09:56:17.360Z,32.42
2022-08-10T09:57:41.421Z,32.39
2022-08-10T09:59:27.295Z,32.57
2022-08-10T10:00:01.493Z,32.63
2022-08-10T10:01:58.147Z,32.72
2022-08-10T10:02:53.105Z,32.73
2022-08-10T10:04:47.468Z,32.70
2022-08-10T10:05:50.402Z,32.72
2022-08-10T10:07:42.625Z,32.82
2022-08-10T10:08:43.218Z,32.90
2022-08-10T10:10:37.715Z,32.95
2022-08-10T10:11:37.707Z,33.01
2022-08-10T10:13:41.566Z,33.41
2022-08-10T10:14:31.867Z,33.35
2022-08-10T10:16:26.028Z,33.48
2022-08-10T10:17:26.030Z,33.52
2022-08-10T10:19:20.153Z,33.79
2022-08-10T10:20:20.163Z,33.93
2022-08-10T10:22:14.381Z,33.82
2022-08-10T10:23:14.381Z,33.66
2022-08-10T10:25:19.673Z,33.74
2022-08-10T10:26:17.646Z,33.79
2022-08-10T10:28:03.806Z,33.76
2022-08-10T10:30:57.772Z,33.78
2022-08-10T10:31:57.761Z,33.32
2022-08-10T10:33:51.910Z,33.17
2022-08-10T10:34:51.916Z,33.29
2022-08-10T10:36:46.067Z,33.51
2022-08-10T10:38:00.758Z,33.06
2022-08-10T10:39:40.277Z,33.19
2022-08-10T10:40:40.258Z,33.39
2022-08-10T10:42:45.135Z,33.86
2022-08-10T10:43:35.470Z,33.93
2022-08-10T10:45:30.607Z,34.15
2022-08-10T10:46:30.608Z,34.40
2022-08-10T10:48:28.965Z,34.76
2022-08-10T10:49:24.725Z,34.80
2022-08-10T10:51:18.838Z,34.60
2022-08-10T10:52:18.836Z,34.52
2022-08-10T10:54:12.966Z,34.78
2022-08-10T10:55:12.966Z,34.75
2022-08-10T10:57:07.150Z,35.07
2022-08-10T10:58:07.149Z,35.02
2022-08-10T11:00:01.531Z,34.66
2022-08-10T11:01:01.573Z,34.66
2022-08-10T11:02:55.747Z,34.73
2022-08-10T11:03:55.744Z,34.91
2022-08-10T11:05:49.927Z,35.16
2022-08-10T11:06:49.934Z,34.70
2022-08-10T11:08:44.151Z,35.04
2022-08-10T11:10:07.915Z,34.85
2022-08-10T11:12:02.100Z,35.13
2022-08-10T11:12:43.591Z,35.02
2022-08-10T11:14:32.677Z,34.82
2022-08-10T11:15:32.682Z,34.94
2022-08-10T11:17:26.977Z,35.09
2022-08-10T11:18:26.890Z,35.20
2022-08-10T11:20:21.578Z,35.46
2022-08-10T11:21:21.702Z,35.50
2022-08-10T11:23:16.769Z,35.48
2022-08-10T11:24:47.665Z,35.19
2022-08-10T11:26:11.349Z,35.13
2022-08-10T11:27:21.592Z,34.92
2022-08-10T11:29:06.672Z,34.47
2022-08-10T11:30:06.692Z,34.01
2022-08-10T11:32:00.874Z,33.78
2022-08-10T11:33:00.871Z,33.64
2022-08-10T11:35:11.793Z,33.29
2022-08-10T11:35:55.022Z,33.13
2022-08-10T11:38:32.267Z,33.14
2022-08-10T11:39:12.852Z,33.14
2022-08-10T11:40:43.485Z,32.90
2022-08-10T11:42:09.714Z,32.87
2022-08-10T11:43:37.629Z,32.79
2022-08-10T11:44:37.635Z,32.80
2022-08-10T11:46:31.858Z,32.63
2022-08-10T11:47:31.852Z,32.82
2022-08-10T11:49:25.639Z,32.79
2022-08-10T11:50:25.643Z,32.70
2022-08-10T11:52:19.848Z,32.65
2022-08-10T11:53:19.846Z,32.64
2022-08-10T11:55:15.460Z,32.80
2022-08-10T11:56:14.213Z,32.75
2022-08-10T11:58:08.467Z,32.63
2022-08-10T11:59:16.717Z,32.55
2022-08-10T12:01:02.644Z,32.57
2022-08-10T12:02:02.722Z,32.65
2022-08-10T12:03:56.401Z,32.76
2022-08-10T12:04:56.403Z,32.73
2022-08-10T12:06:57.759Z,32.54
2022-08-10T12:10:04.462Z,32.64
2022-08-10T12:10:10.825Z,32.82
2022-08-10T12:10:44.678Z,32.77
2022-08-10T12:12:39.870Z,32.95
2022-08-10T12:13:39.845Z,33.04
2022-08-10T12:15:34.009Z,32.90
2022-08-10T12:16:33.996Z,32.79
2022-08-10T12:18:28.124Z,32.87
2022-08-10T12:19:28.223Z,32.88
2022-08-10T12:21:22.420Z,32.82
2022-08-10T12:22:22.265Z,32.45
2022-08-10T12:24:16.731Z,32.38
2022-08-10T12:25:49.617Z,32.53
2022-08-10T12:27:13.330Z,32.68
2022-08-10T12:28:10.879Z,32.64
2022-08-10T12:30:04.659Z,32.65
2022-08-10T12:31:04.654Z,32.73
2022-08-10T12:32:58.836Z,32.76
2022-08-10T12:34:02.023Z,32.75
2022-08-10T12:36:16.880Z,32.97
2022-08-10T12:36:53.088Z,32.85
2022-08-10T12:38:47.211Z,32.48
2022-08-10T12:39:47.254Z,32.27
2022-08-10T12:41:44.387Z,32.41
2022-08-10T12:42:42.128Z,32.51
2022-08-10T12:44:41.066Z,32.53
2022-08-10T12:45:35.463Z,32.39
2022-08-10T12:47:29.610Z,32.41
2022-08-10T12:48:31.094Z,32.39
2022-08-10T12:50:32.849Z,32.13
2022-08-10T12:51:24.154Z,32.09
2022-08-10T12:53:18.531Z,32.24
2022-08-10T12:54:32.075Z,32.21
2022-08-10T12:56:12.637Z,32.41
2022-08-10T12:57:12.627Z,32.46
2022-08-10T12:59:06.756Z,32.24
2022-08-10T13:00:06.761Z,32.33
2022-08-10T13:02:06.656Z,32.51
2022-08-10T13:04:20.713Z,32.72
2022-08-10T13:05:15.178Z,32.75
2022-08-10T13:07:09.303Z,32.24
2022-08-10T13:08:26.611Z,32.38
2022-08-10T13:10:03.614Z,32.50
2022-08-10T13:11:03.475Z,32.38
2022-08-10T13:12:58.699Z,32.43
2022-08-10T13:13:58.690Z,32.48
2022-08-10T13:15:53.071Z,32.43
2022-08-10T13:16:53.071Z,32.51
2022-08-10T13:18:47.280Z,32.21
2022-08-10T13:19:56.053Z,32.20
2022-08-10T13:21:41.760Z,32.28
2022-08-10T13:22:41.771Z,32.42
2022-08-10T13:24:35.914Z,32.41
2022-08-10T13:25:35.914Z,32.46
2022-08-10T13:28:01.189Z,32.38
2022-08-10T13:28:35.789Z,32.33
2022-08-10T13:30:37.898Z,32.43
2022-08-10T13:31:29.646Z,32.57
2022-08-10T13:34:39.509Z,32.69
2022-08-10T13:34:43.096Z,32.73
2022-08-10T13:36:12.395Z,32.76
2022-08-10T13:37:12.375Z,32.88
2022-08-10T13:39:06.796Z,32.82
2022-08-10T13:40:06.785Z,32.80
2022-08-10T13:42:01.967Z,32.61
2022-08-10T13:43:01.885Z,32.61
2022-08-10T13:44:56.044Z,32.70
2022-08-10T13:45:56.061Z,32.83
2022-08-10T13:47:50.408Z,32.92
2022-08-10T13:48:50.223Z,32.76
2022-08-10T13:50:44.084Z,32.68
2022-08-10T13:51:57.629Z,32.65
2022-08-10T13:53:38.391Z,32.87
2022-08-10T13:54:38.379Z,32.88
2022-08-10T13:56:32.533Z,32.65
2022-08-10T13:57:32.523Z,32.57
2022-08-10T13:59:26.658Z,32.54
2022-08-10T14:00:37.126Z,32.73
2022-08-10T14:02:20.459Z,32.79
2022-08-10T14:03:20.452Z,32.85
2022-08-10T14:05:14.643Z,32.97
2022-08-10T14:06:14.639Z,32.92
2022-08-10T14:08:09.842Z,32.98
2022-08-10T14:09:09.810Z,33.07
2022-08-10T14:11:11.814Z,33.09
2022-08-10T14:12:04.031Z,33.19
2022-08-10T14:13:58.271Z,33.24
2022-08-10T14:14:58.254Z,32.97
2022-08-10T14:16:52.439Z,32.83
2022-08-10T14:17:52.436Z,32.79
2022-08-10T14:19:47.561Z,32.60
2022-08-10T14:20:47.554Z,32.53
2022-08-10T14:22:41.889Z,32.43
2022-08-10T14:23:41.796Z,32.42
2022-08-10T14:25:35.997Z,32.51
2022-08-10T14:26:35.995Z,32.55
2022-08-10T14:28:31.154Z,32.70
2022-08-10T14:29:31.139Z,32.82
2022-08-10T14:31:25.342Z,32.77
2022-08-10T14:32:25.343Z,32.75
2022-08-10T14:34:19.505Z,32.65
2022-08-10T14:36:21.178Z,32.65
2022-08-10T14:37:14.627Z,32.83
2022-08-10T14:38:14.621Z,32.69
2022-08-10T14:40:09.912Z,32.57
2022-08-10T14:41:09.911Z,32.48
2022-08-10T14:43:04.018Z,32.60
2022-08-10T14:44:04.057Z,32.57
2022-08-10T14:46:01.425Z,32.53
2022-08-10T14:46:58.113Z,32.63
2022-08-10T14:48:52.417Z,32.51
2022-08-10T14:49:59.448Z,32.46
2022-08-10T14:51:46.659Z,32.43
2022-08-10T14:52:46.648Z,32.54
2022-08-10T14:54:40.824Z,32.60
2022-08-10T14:55:59.044Z,32.60
2022-08-10T14:58:19.561Z,32.72
2022-08-10T14:58:35.226Z,32.63
2022-08-10T15:00:36.719Z,32.39
2022-08-10T15:02:00.563Z,32.36
2022-08-10T15:03:59.379Z,32.39
2022-08-10T15:04:23.744Z,32.46
2022-08-10T15:06:19.980Z,32.57
2022-08-10T15:07:20.702Z,32.63
2022-08-10T15:09:19.104Z,32.75
2022-08-10T15:10:14.112Z,32.76
2022-08-10T15:12:15.294Z,32.65
2022-08-10T15:13:08.250Z,32.77
2022-08-10T15:15:02.417Z,32.77
2022-08-10T15:16:12.597Z,32.79
2022-08-10T15:17:57.386Z,32.69
2022-08-10T15:18:58.345Z,32.53
2022-08-10T15:20:51.625Z,32.45
2022-08-10T15:22:02.074Z,32.50
2022-08-10T15:24:05.123Z,32.54
2022-08-10T15:24:44.661Z,32.48
2022-08-10T15:26:38.817Z,32.55
2022-08-10T15:27:54.068Z,32.58
2022-08-10T15:29:33.025Z,32.57
2022-08-10T15:30:33.000Z,32.46
2022-08-10T15:32:28.114Z,32.46
2022-08-10T15:33:57.029Z,32.33
2022-08-10T15:35:22.349Z,32.35
2022-08-10T15:36:22.349Z,32.42
2022-08-10T15:38:16.468Z,32.43
2022-08-10T15:40:21.226Z,32.46
2022-08-10T15:41:11.172Z,32.43
2022-08-10T15:42:10.729Z,32.41
2022-08-10T15:44:04.946Z,32.45
2022-08-10T15:45:04.937Z,32.42
2022-08-10T15:47:00.224Z,32.33
2022-08-10T15:48:03.568Z,32.35
2022-08-10T15:49:54.347Z,32.39
2022-08-10T15:50:54.344Z,32.46
2022-08-10T15:53:00.802Z,32.48
2022-08-10T15:53:49.696Z,32.45
2022-08-10T15:55:45.645Z,32.35
2022-08-10T15:56:42.629Z,32.43
2022-08-10T15:58:39.425Z,32.35
2022-08-10T15:59:36.783Z,32.24
2022-08-10T16:02:13.200Z,32.38
2022-08-10T16:02:30.948Z,32.41
2022-08-10T16:04:31.695Z,32.43
2022-08-10T16:05:40.714Z,32.46
2022-08-10T16:07:20.757Z,32.42
2022-08-10T16:08:22.150Z,32.45
2022-08-10T16:10:25.379Z,32.42
2022-08-10T16:11:14.341Z,32.35
2022-08-10T16:13:59.685Z,32.26
2022-08-10T16:14:08.471Z,32.33
2022-08-10T16:16:02.705Z,32.26
2022-08-10T16:17:02.703Z,32.33
2022-08-10T16:18:56.827Z,32.28
2022-08-10T16:19:56.859Z,32.28
2022-08-10T16:21:50.956Z,32.32
2022-08-10T16:22:50.963Z,32.41
2022-08-10T16:24:45.296Z,32.31
2022-08-10T16:25:51.680Z,32.28
2022-08-10T16:27:40.520Z,32.27
2022-08-10T16:28:40.514Z,32.28
2022-08-10T16:30:34.268Z,32.28
2022-08-10T16:31:34.259Z,32.28
2022-08-10T16:33:53.158Z,32.16
2022-08-10T16:34:28.364Z,32.11
2022-08-10T16:36:22.496Z,32.06
2022-08-10T16:37:22.492Z,32.13
2022-08-10T16:39:57.179Z,32.06
2022-08-10T16:40:16.665Z,32.01
2022-08-10T16:42:10.777Z,31.99
2022-08-10T16:43:10.776Z,32.04
2022-08-10T16:45:05.133Z,32.02
2022-08-10T16:46:05.141Z,31.97
2022-08-10T16:47:59.311Z,32.01
2022-08-10T16:48:59.309Z,32.04
2022-08-10T16:50:53.453Z,31.97
2022-08-10T16:51:53.443Z,32.01
2022-08-10T16:53:47.777Z,31.97
2022-08-10T16:54:50.123Z,31.95
2022-08-10T16:56:49.088Z,31.87
2022-08-10T16:57:41.725Z,31.78
2022-08-10T16:59:36.925Z,31.90
2022-08-10T17:00:36.918Z,31.87
2022-08-10T17:02:31.153Z,31.86
2022-08-10T17:04:08.455Z,31.89
2022-08-10T17:06:01.813Z,31.81
2022-08-10T17:06:25.263Z,31.76
2022-08-10T17:08:19.036Z,31.71
2022-08-10T17:09:19.036Z,31.70
2022-08-10T17:11:14.074Z,31.79
2022-08-10T17:12:13.208Z,31.68
2022-08-10T17:14:07.480Z,31.71
2022-08-10T17:15:09.382Z,31.71
2022-08-10T17:17:01.632Z,31.68
2022-08-10T17:18:01.628Z,31.64
2022-08-10T17:19:55.864Z,31.67
2022-08-10T17:20:55.765Z,31.64
2022-08-10T17:22:54.488Z,31.57
2022-08-10T17:23:49.913Z,31.51
2022-08-10T17:25:46.020Z,31.45
2022-08-10T17:26:44.122Z,31.42
2022-08-10T17:28:38.368Z,31.46
2022-08-10T17:29:58.613Z,31.46
2022-08-10T17:31:53.334Z,31.39
2022-08-10T17:32:32.434Z,31.38
2022-08-10T17:34:26.557Z,31.39
2022-08-10T17:35:26.549Z,31.33
2022-08-10T17:37:20.687Z,31.19
2022-08-10T17:38:20.688Z,31.24
2022-08-10T17:40:14.973Z,31.17
2022-08-10T17:41:14.961Z,31.15
2022-08-10T17:43:09.111Z,31.20
2022-08-10T17:44:09.103Z,31.22
2022-08-10T17:46:03.262Z,31.11
2022-08-10T17:47:10.934Z,31.14
2022-08-10T17:48:57.339Z,31.04
2022-08-10T17:49:57.341Z,31.08
2022-08-10T17:51:51.491Z,30.96
2022-08-10T17:52:51.475Z,30.97
2022-08-10T17:54:45.602Z,30.88
2022-08-10T17:55:45.599Z,30.77
2022-08-10T17:57:39.920Z,30.75
2022-08-10T17:58:39.683Z,30.74
2022-08-10T18:00:33.842Z,30.68
2022-08-10T18:01:38.645Z,30.70
2022-08-10T18:03:29.027Z,30.62
2022-08-10T18:04:30.334Z,30.55
2022-08-10T18:06:23.363Z,30.53
2022-08-10T18:07:23.354Z,30.43
2022-08-10T18:09:18.694Z,30.36
2022-08-10T18:10:18.682Z,30.26
2022-08-10T18:12:17.601Z,30.17
2022-08-10T18:13:12.584Z,30.21
2022-08-10T18:15:06.721Z,30.20
2022-08-10T18:16:06.709Z,30.18
2022-08-10T18:18:01.863Z,30.02
2022-08-10T18:19:01.855Z,29.98
2022-08-10T18:20:56.085Z,29.91
2022-08-10T18:21:56.067Z,29.84
2022-08-10T18:23:52.661Z,29.80
2022-08-10T18:24:50.250Z,29.71
2022-08-10T18:26:44.357Z,29.76
2022-08-10T18:28:01.155Z,29.62
2022-08-10T18:29:38.493Z,29.61
2022-08-10T18:30:42.127Z,29.59
2022-08-10T18:32:32.253Z,29.49
2022-08-10T18:33:32.251Z,29.50
2022-08-10T18:35:34.828Z,29.28
2022-08-10T18:36:26.644Z,29.40
2022-08-10T18:38:20.835Z,29.17
2022-08-10T18:39:20.886Z,29.21
2022-08-10T18:41:14.955Z,29.21
2022-08-10T18:42:14.947Z,29.25
2022-08-10T18:44:12.219Z,29.06
2022-08-10T18:45:09.022Z,29.06